sensor_id;sensor_type;location;lat;lon;timestamp;pressure;altitude;pressure_sealevel;temperature;humidity
58534;BME280;44109;52.398;7.024;2022-10-13T00:00:03;101735.44;;;8.26;91.72
58534;BME280;44109;52.398;7.024;2022-10-13T00:02:32;101726.34;;;8.25;91.77
58534;BME280;44109;52.398;7.024;2022-10-13T00:04:59;101720.50;;;8.27;91.97
58534;BME280;44109;52.398;7.024;2022-10-13T00:07:27;101727.31;;;8.29;92.05
58534;BME280;44109;52.398;7.024;2022-10-13T00:09:54;101722.94;;;8.28;92.08
58534;BME280;44109;52.398;7.024;2022-10-13T00:12:23;101733.66;;;8.30;92.16
58534;BME280;44109;52.398;7.024;2022-10-13T00:14:51;101730.09;;;8.29;92.14
58534;BME280;44109;52.398;7.024;2022-10-13T00:17:18;101724.09;;;8.27;91.83
58534;BME280;44109;52.398;7.024;2022-10-13T00:19:46;101713.84;;;8.28;91.78
58534;BME280;44109;52.398;7.024;2022-10-13T00:22:13;101720.63;;;8.30;92.03
58534;BME280;44109;52.398;7.024;2022-10-13T00:24:41;101714.00;;;8.31;92.43
58534;BME280;44109;52.398;7.024;2022-10-13T00:27:08;101711.69;;;8.33;92.45
58534;BME280;44109;52.398;7.024;2022-10-13T00:29:37;101702.59;;;8.33;92.44
58534;BME280;44109;52.398;7.024;2022-10-13T00:32:04;101711.06;;;8.36;92.27
58534;BME280;44109;52.398;7.024;2022-10-13T00:34:32;101705.19;;;8.38;92.47
58534;BME280;44109;52.398;7.024;2022-10-13T00:37:00;101686.50;;;8.26;92.19
58534;BME280;44109;52.398;7.024;2022-10-13T00:39:27;101696.56;;;8.39;92.32
58534;BME280;44109;52.398;7.024;2022-10-13T00:41:55;101685.66;;;8.34;92.86
58534;BME280;44109;52.398;7.024;2022-10-13T00:45:00;101699.44;;;8.52;93.03
58534;BME280;44109;52.398;7.024;2022-10-13T00:47:33;101688.66;;;8.59;93.78
58534;BME280;44109;52.398;7.024;2022-10-13T00:50:08;101679.22;;;8.60;93.79
58534;BME280;44109;52.398;7.024;2022-10-13T00:52:38;101676.53;;;8.72;93.74
58534;BME280;44109;52.398;7.024;2022-10-13T00:55:10;101669.50;;;8.75;94.27
58534;BME280;44109;52.398;7.024;2022-10-13T00:57:42;101670.75;;;8.86;94.26
58534;BME280;44109;52.398;7.024;2022-10-13T01:00:21;101668.59;;;8.92;94.56
58534;BME280;44109;52.398;7.024;2022-10-13T01:02:50;101675.09;;;9.08;94.67
58534;BME280;44109;52.398;7.024;2022-10-13T01:05:19;101675.84;;;9.17;95.16
58534;BME280;44109;52.398;7.024;2022-10-13T01:07:48;101666.22;;;9.23;94.95
58534;BME280;44109;52.398;7.024;2022-10-13T01:10:21;101669.13;;;9.27;95.23
58534;BME280;44109;52.398;7.024;2022-10-13T01:13:02;101666.22;;;9.35;95.04
58534;BME280;44109;52.398;7.024;2022-10-13T01:15:41;101673.19;;;9.42;95.21
58534;BME280;44109;52.398;7.024;2022-10-13T01:18:21;101633.94;;;9.27;94.83
58534;BME280;44109;52.398;7.024;2022-10-13T01:21:15;101655.47;;;9.55;95.13
58534;BME280;44109;52.398;7.024;2022-10-13T01:27:40;101665.88;;;9.70;95.34
58534;BME280;44109;52.398;7.024;2022-10-13T01:30:27;101663.03;;;9.79;95.11
58534;BME280;44109;52.398;7.024;2022-10-13T01:33:18;101657.38;;;9.87;95.58
58534;BME280;44109;52.398;7.024;2022-10-13T01:36:05;101657.97;;;9.93;95.06
58534;BME280;44109;52.398;7.024;2022-10-13T01:38:46;101652.41;;;9.93;95.11
58534;BME280;44109;52.398;7.024;2022-10-13T01:41:25;101637.06;;;9.83;94.90
58534;BME280;44109;52.398;7.024;2022-10-13T01:44:00;101651.75;;;9.96;94.42
58534;BME280;44109;52.398;7.024;2022-10-13T01:46:35;101654.63;;;10.00;94.29
58534;BME280;44109;52.398;7.024;2022-10-13T01:49:08;101645.84;;;9.98;94.47
58534;BME280;44109;52.398;7.024;2022-10-13T01:51:37;101648.50;;;10.06;94.13
58534;BME280;44109;52.398;7.024;2022-10-13T01:54:06;101619.03;;;9.89;94.50
58534;BME280;44109;52.398;7.024;2022-10-13T01:56:34;101644.00;;;10.14;94.23
58534;BME280;44109;52.398;7.024;2022-10-13T01:59:04;101637.56;;;10.22;94.27
58534;BME280;44109;52.398;7.024;2022-10-13T02:01:45;101612.94;;;10.08;94.07
58534;BME280;44109;52.398;7.024;2022-10-13T02:04:29;101645.44;;;10.32;94.34
58534;BME280;44109;52.398;7.024;2022-10-13T02:07:14;101642.66;;;10.32;94.05
58534;BME280;44109;52.398;7.024;2022-10-13T02:09:53;101636.75;;;10.34;94.26
58534;BME280;44109;52.398;7.024;2022-10-13T02:12:28;101631.69;;;10.36;93.74
58534;BME280;44109;52.398;7.024;2022-10-13T02:14:58;101631.78;;;10.39;94.04
58534;BME280;44109;52.398;7.024;2022-10-13T02:17:29;101639.03;;;10.56;93.87
58534;BME280;44109;52.398;7.024;2022-10-13T02:19:58;101624.97;;;10.49;93.66
58534;BME280;44109;52.398;7.024;2022-10-13T02:22:28;101640.19;;;10.68;94.20
58534;BME280;44109;52.398;7.024;2022-10-13T02:25:00;101621.91;;;10.66;94.12
58534;BME280;44109;52.398;7.024;2022-10-13T02:27:27;101641.41;;;10.82;93.89
58534;BME280;44109;52.398;7.024;2022-10-13T02:29:56;101634.47;;;10.88;94.33
58534;BME280;44109;52.398;7.024;2022-10-13T02:32:24;101622.44;;;10.84;94.19
58534;BME280;44109;52.398;7.024;2022-10-13T02:34:53;101636.72;;;10.99;94.46
58534;BME280;44109;52.398;7.024;2022-10-13T02:37:21;101622.63;;;11.04;94.02
58534;BME280;44109;52.398;7.024;2022-10-13T02:39:50;101624.22;;;11.05;94.01
58534;BME280;44109;52.398;7.024;2022-10-13T02:42:18;101625.16;;;11.09;93.68
58534;BME280;44109;52.398;7.024;2022-10-13T02:44:45;101621.75;;;11.15;93.89
58534;BME280;44109;52.398;7.024;2022-10-13T02:47:13;101627.31;;;11.15;93.67
58534;BME280;44109;52.398;7.024;2022-10-13T02:49:40;101621.38;;;11.17;93.39
58534;BME280;44109;52.398;7.024;2022-10-13T02:52:09;101621.66;;;11.12;93.46
58534;BME280;44109;52.398;7.024;2022-10-13T02:54:36;101620.31;;;11.22;93.45
58534;BME280;44109;52.398;7.024;2022-10-13T02:57:04;101624.75;;;11.23;93.20
58534;BME280;44109;52.398;7.024;2022-10-13T02:59:31;101615.78;;;11.29;93.37
58534;BME280;44109;52.398;7.024;2022-10-13T03:01:59;101615.53;;;11.34;93.44
58534;BME280;44109;52.398;7.024;2022-10-13T03:04:26;101622.69;;;11.35;93.37
58534;BME280;44109;52.398;7.024;2022-10-13T03:06:54;101611.25;;;11.37;93.00
58534;BME280;44109;52.398;7.024;2022-10-13T03:09:23;101605.31;;;11.38;92.86
58534;BME280;44109;52.398;7.024;2022-10-13T03:11:51;101605.16;;;11.31;92.56
58534;BME280;44109;52.398;7.024;2022-10-13T03:14:18;101598.41;;;11.32;92.89
58534;BME280;44109;52.398;7.024;2022-10-13T03:16:46;101596.44;;;11.33;92.37
58534;BME280;44109;52.398;7.024;2022-10-13T03:19:13;101601.19;;;11.32;92.21
58534;BME280;44109;52.398;7.024;2022-10-13T03:21:41;101600.72;;;11.30;91.92
58534;BME280;44109;52.398;7.024;2022-10-13T03:24:08;101576.50;;;11.15;91.68
58534;BME280;44109;52.398;7.024;2022-10-13T03:26:37;101591.47;;;11.26;91.66
58534;BME280;44109;52.398;7.024;2022-10-13T03:29:04;101595.31;;;11.22;91.74
58534;BME280;44109;52.398;7.024;2022-10-13T03:31:32;101581.81;;;11.20;91.73
58534;BME280;44109;52.398;7.024;2022-10-13T03:34:00;101587.84;;;11.22;91.58
58534;BME280;44109;52.398;7.024;2022-10-13T03:36:28;101585.84;;;11.23;91.52
58534;BME280;44109;52.398;7.024;2022-10-13T03:38:55;101581.63;;;11.13;91.68
58534;BME280;44109;52.398;7.024;2022-10-13T03:41:23;101568.72;;;11.05;92.08
58534;BME280;44109;52.398;7.024;2022-10-13T03:43:52;101575.44;;;11.20;92.29
58534;BME280;44109;52.398;7.024;2022-10-13T03:46:21;101578.78;;;11.25;92.13
58534;BME280;44109;52.398;7.024;2022-10-13T03:48:53;101570.91;;;11.27;91.99
58534;BME280;44109;52.398;7.024;2022-10-13T03:51:21;101569.72;;;11.28;91.84
58534;BME280;44109;52.398;7.024;2022-10-13T03:53:51;101545.06;;;11.11;91.56
58534;BME280;44109;52.398;7.024;2022-10-13T03:56:20;101566.97;;;11.28;92.06
58534;BME280;44109;52.398;7.024;2022-10-13T03:58:52;101567.75;;;11.29;92.17
58534;BME280;44109;52.398;7.024;2022-10-13T04:01:22;101566.59;;;11.30;92.08
58534;BME280;44109;52.398;7.024;2022-10-13T04:03:51;101563.72;;;11.26;92.01
58534;BME280;44109;52.398;7.024;2022-10-13T04:06:21;101561.50;;;11.32;92.15
58534;BME280;44109;52.398;7.024;2022-10-13T04:08:49;101575.03;;;11.33;91.92
58534;BME280;44109;52.398;7.024;2022-10-13T04:11:17;101565.53;;;11.34;91.75
58534;BME280;44109;52.398;7.024;2022-10-13T04:13:45;101561.50;;;11.32;91.82
58534;BME280;44109;52.398;7.024;2022-10-13T04:16:16;101555.38;;;11.26;91.32
58534;BME280;44109;52.398;7.024;2022-10-13T04:18:48;101515.50;;;11.03;91.64
58534;BME280;44109;52.398;7.024;2022-10-13T04:21:18;101547.69;;;11.20;91.66
58534;BME280;44109;52.398;7.024;2022-10-13T04:23:45;101533.84;;;11.07;91.70
58534;BME280;44109;52.398;7.024;2022-10-13T04:26:15;101531.19;;;11.11;91.30
58534;BME280;44109;52.398;7.024;2022-10-13T04:28:44;101533.53;;;11.09;91.66
58534;BME280;44109;52.398;7.024;2022-10-13T04:31:13;101533.16;;;11.10;91.48
58534;BME280;44109;52.398;7.024;2022-10-13T04:33:41;101538.59;;;11.07;91.61
58534;BME280;44109;52.398;7.024;2022-10-13T04:36:11;101518.53;;;10.98;91.50
58534;BME280;44109;52.398;7.024;2022-10-13T04:38:39;101507.16;;;11.03;91.56
58534;BME280;44109;52.398;7.024;2022-10-13T04:41:08;101509.84;;;10.99;92.20
58534;BME280;44109;52.398;7.024;2022-10-13T04:43:36;101513.22;;;10.92;92.99
58534;BME280;44109;52.398;7.024;2022-10-13T04:46:06;101523.13;;;11.06;92.83
58534;BME280;44109;52.398;7.024;2022-10-13T04:48:36;101535.56;;;11.12;93.38
58534;BME280;44109;52.398;7.024;2022-10-13T04:51:05;101527.81;;;11.17;93.24
58534;BME280;44109;52.398;7.024;2022-10-13T04:53:34;101520.00;;;11.23;93.43
58534;BME280;44109;52.398;7.024;2022-10-13T04:56:04;101532.63;;;11.21;93.21
58534;BME280;44109;52.398;7.024;2022-10-13T04:58:34;101520.91;;;11.27;93.29
58534;BME280;44109;52.398;7.024;2022-10-13T05:01:04;101533.63;;;11.28;93.43
58534;BME280;44109;52.398;7.024;2022-10-13T05:03:34;101522.63;;;11.32;93.59
58534;BME280;44109;52.398;7.024;2022-10-13T05:06:03;101529.78;;;11.33;93.58
58534;BME280;44109;52.398;7.024;2022-10-13T05:08:30;101522.94;;;11.30;93.85
58534;BME280;44109;52.398;7.024;2022-10-13T05:11:00;101516.59;;;11.30;93.34
58534;BME280;44109;52.398;7.024;2022-10-13T05:13:28;101488.03;;;11.13;93.22
58534;BME280;44109;52.398;7.024;2022-10-13T05:15:56;101508.38;;;11.33;93.24
58534;BME280;44109;52.398;7.024;2022-10-13T05:18:24;101507.19;;;11.34;93.49
58534;BME280;44109;52.398;7.024;2022-10-13T05:20:53;101523.41;;;11.32;93.52
58534;BME280;44109;52.398;7.024;2022-10-13T05:23:20;101513.91;;;11.33;93.35
58534;BME280;44109;52.398;7.024;2022-10-13T05:25:48;101519.84;;;11.32;93.59
58534;BME280;44109;52.398;7.024;2022-10-13T05:28:16;101532.19;;;11.34;93.62
58534;BME280;44109;52.398;7.024;2022-10-13T05:30:43;101535.53;;;11.40;93.73
58534;BME280;44109;52.398;7.024;2022-10-13T05:33:10;101522.59;;;11.48;94.14
58534;BME280;44109;52.398;7.024;2022-10-13T05:35:38;101515.97;;;11.52;94.00
58534;BME280;44109;52.398;7.024;2022-10-13T05:38:07;101513.72;;;11.58;94.11
58534;BME280;44109;52.398;7.024;2022-10-13T05:40:35;101503.06;;;11.60;94.02
58534;BME280;44109;52.398;7.024;2022-10-13T05:43:02;101520.66;;;11.64;93.91
58534;BME280;44109;52.398;7.024;2022-10-13T05:45:31;101478.63;;;11.50;93.85
58534;BME280;44109;52.398;7.024;2022-10-13T05:47:59;101505.22;;;11.66;93.62
58534;BME280;44109;52.398;7.024;2022-10-13T05:50:27;101506.47;;;11.69;93.74
58534;BME280;44109;52.398;7.024;2022-10-13T05:52:55;101500.91;;;11.69;93.64
58534;BME280;44109;52.398;7.024;2022-10-13T05:55:24;101510.06;;;11.69;93.83
58534;BME280;44109;52.398;7.024;2022-10-13T05:57:52;101518.91;;;11.75;94.00
58534;BME280;44109;52.398;7.024;2022-10-13T06:00:20;101528.53;;;11.78;93.85
58534;BME280;44109;52.398;7.024;2022-10-13T06:02:50;101505.81;;;11.76;93.84
58534;BME280;44109;52.398;7.024;2022-10-13T06:05:23;101511.94;;;11.81;93.93
58534;BME280;44109;52.398;7.024;2022-10-13T06:07:53;101520.13;;;11.90;93.98
58534;BME280;44109;52.398;7.024;2022-10-13T06:10:22;101512.38;;;11.99;94.20
58534;BME280;44109;52.398;7.024;2022-10-13T06:12:51;101521.69;;;12.07;94.12
58534;BME280;44109;52.398;7.024;2022-10-13T06:15:19;101515.91;;;12.15;94.56
58534;BME280;44109;52.398;7.024;2022-10-13T06:17:46;101518.06;;;12.22;94.37
58534;BME280;44109;52.398;7.024;2022-10-13T06:20:14;101517.31;;;12.25;94.29
58534;BME280;44109;52.398;7.024;2022-10-13T06:22:41;101502.09;;;12.19;94.04
58534;BME280;44109;52.398;7.024;2022-10-13T06:25:09;101523.84;;;12.33;93.93
58534;BME280;44109;52.398;7.024;2022-10-13T06:27:37;101512.28;;;12.31;93.56
58534;BME280;44109;52.398;7.024;2022-10-13T06:30:07;101502.69;;;12.28;93.50
58534;BME280;44109;52.398;7.024;2022-10-13T06:32:35;101503.41;;;12.25;93.31
58534;BME280;44109;52.398;7.024;2022-10-13T06:35:03;101489.00;;;12.19;93.17
58534;BME280;44109;52.398;7.024;2022-10-13T06:37:31;101482.63;;;12.19;93.00
58534;BME280;44109;52.398;7.024;2022-10-13T06:39:59;101498.00;;;12.32;93.05
58534;BME280;44109;52.398;7.024;2022-10-13T06:42:26;101502.84;;;12.35;92.99
58534;BME280;44109;52.398;7.024;2022-10-13T06:44:56;101500.50;;;12.37;93.19
58534;BME280;44109;52.398;7.024;2022-10-13T06:47:25;101498.91;;;12.36;93.01
58534;BME280;44109;52.398;7.024;2022-10-13T06:49:53;101501.22;;;12.34;92.93
58534;BME280;44109;52.398;7.024;2022-10-13T06:52:20;101521.00;;;12.29;92.73
58534;BME280;44109;52.398;7.024;2022-10-13T06:54:48;101509.50;;;12.31;92.78
58534;BME280;44109;52.398;7.024;2022-10-13T06:57:15;101514.72;;;12.32;92.83
58534;BME280;44109;52.398;7.024;2022-10-13T06:59:43;101511.56;;;12.34;92.87
58534;BME280;44109;52.398;7.024;2022-10-13T07:02:10;101506.78;;;12.34;92.68
58534;BME280;44109;52.398;7.024;2022-10-13T07:04:39;101508.44;;;12.35;92.98
58534;BME280;44109;52.398;7.024;2022-10-13T07:07:07;101514.78;;;12.36;92.80
58534;BME280;44109;52.398;7.024;2022-10-13T07:09:34;101498.91;;;12.36;93.13
58534;BME280;44109;52.398;7.024;2022-10-13T07:12:02;101493.97;;;12.30;92.98
58534;BME280;44109;52.398;7.024;2022-10-13T07:14:29;101496.63;;;12.42;93.06
58534;BME280;44109;52.398;7.024;2022-10-13T07:16:58;101454.22;;;12.29;93.25
58534;BME280;44109;52.398;7.024;2022-10-13T07:19:26;101495.41;;;12.59;93.66
58534;BME280;44109;52.398;7.024;2022-10-13T07:21:55;101497.28;;;12.74;94.31
58534;BME280;44109;52.398;7.024;2022-10-13T07:24:22;101496.94;;;12.99;95.23
58534;BME280;44109;52.398;7.024;2022-10-13T07:26:50;101503.28;;;13.18;95.79
58534;BME280;44109;52.398;7.024;2022-10-13T07:29:18;101503.38;;;13.45;96.51
58534;BME280;44109;52.398;7.024;2022-10-13T07:31:45;101496.06;;;13.60;96.62
58534;BME280;44109;52.398;7.024;2022-10-13T07:34:13;101503.19;;;13.84;96.94
58534;BME280;44109;52.398;7.024;2022-10-13T07:36:42;101492.22;;;13.94;96.67
58534;BME280;44109;52.398;7.024;2022-10-13T07:39:10;101486.84;;;14.09;96.86
58534;BME280;44109;52.398;7.024;2022-10-13T07:41:38;101493.38;;;14.20;96.81
58534;BME280;44109;52.398;7.024;2022-10-13T07:44:06;101483.16;;;14.31;96.60
58534;BME280;44109;52.398;7.024;2022-10-13T07:46:33;101482.50;;;14.41;96.35
58534;BME280;44109;52.398;7.024;2022-10-13T07:49:01;101479.34;;;14.46;95.67
58534;BME280;44109;52.398;7.024;2022-10-13T07:51:28;101484.59;;;14.48;95.12
58534;BME280;44109;52.398;7.024;2022-10-13T07:53:56;101492.91;;;14.44;93.85
58534;BME280;44109;52.398;7.024;2022-10-13T08:00:10;101490.38;;;14.66;93.81
58534;BME280;44109;52.398;7.024;2022-10-13T08:02:38;101478.13;;;14.74;93.90
58534;BME280;44109;52.398;7.024;2022-10-13T08:05:07;101477.78;;;14.79;93.65
58534;BME280;44109;52.398;7.024;2022-10-13T08:07:34;101469.88;;;14.88;93.65
58534;BME280;44109;52.398;7.024;2022-10-13T08:10:03;101475.16;;;14.97;93.67
58534;BME280;44109;52.398;7.024;2022-10-13T08:12:33;101469.66;;;15.08;93.74
58534;BME280;44109;52.398;7.024;2022-10-13T08:15:01;101471.41;;;15.19;93.77
58534;BME280;44109;52.398;7.024;2022-10-13T08:17:30;101477.91;;;15.31;93.74
58534;BME280;44109;52.398;7.024;2022-10-13T08:19:58;101469.88;;;15.29;92.18
58534;BME280;44109;52.398;7.024;2022-10-13T08:22:26;101464.44;;;15.47;92.46
58534;BME280;44109;52.398;7.024;2022-10-13T08:24:53;101456.66;;;15.67;92.87
58534;BME280;44109;52.398;7.024;2022-10-13T08:27:23;101448.66;;;15.69;90.60
58534;BME280;44109;52.398;7.024;2022-10-13T08:29:51;101455.94;;;15.81;88.51
58534;BME280;44109;52.398;7.024;2022-10-13T08:32:20;101458.97;;;16.23;92.11
58534;BME280;44109;52.398;7.024;2022-10-13T08:34:48;101466.66;;;16.44;91.57
58534;BME280;44109;52.398;7.024;2022-10-13T08:37:18;101465.13;;;16.68;92.46
58534;BME280;44109;52.398;7.024;2022-10-13T08:39:47;101428.63;;;16.43;89.00
58534;BME280;44109;52.398;7.024;2022-10-13T08:42:16;101481.22;;;16.82;89.37
58534;BME280;44109;52.398;7.024;2022-10-13T08:44:49;101480.00;;;16.76;86.47
58534;BME280;44109;52.398;7.024;2022-10-13T08:47:29;101480.31;;;16.60;83.24
58534;BME280;44109;52.398;7.024;2022-10-13T08:50:10;101485.22;;;16.81;84.60
58534;BME280;44109;52.398;7.024;2022-10-13T08:52:45;101479.22;;;16.93;84.65
58534;BME280;44109;52.398;7.024;2022-10-13T08:55:22;101482.03;;;16.93;82.20
58534;BME280;44109;52.398;7.024;2022-10-13T08:57:53;101487.66;;;17.08;82.47
58534;BME280;44109;52.398;7.024;2022-10-13T09:00:21;101479.28;;;17.33;84.74
58534;BME280;44109;52.398;7.024;2022-10-13T09:02:49;101486.88;;;17.11;81.05
58534;BME280;44109;52.398;7.024;2022-10-13T09:05:26;101476.44;;;17.08;80.22
58534;BME280;44109;52.398;7.024;2022-10-13T09:08:03;101472.50;;;17.37;80.81
58534;BME280;44109;52.398;7.024;2022-10-13T09:10:45;101490.91;;;17.53;82.47
58534;BME280;44109;52.398;7.024;2022-10-13T09:13:14;101492.53;;;17.50;79.89
58534;BME280;44109;52.398;7.024;2022-10-13T09:15:43;101490.50;;;17.47;80.41
58534;BME280;44109;52.398;7.024;2022-10-13T09:18:12;101488.50;;;17.19;78.33
58534;BME280;44109;52.398;7.024;2022-10-13T09:20:41;101490.88;;;17.10;79.90
58534;BME280;44109;52.398;7.024;2022-10-13T09:23:17;101488.91;;;17.14;80.02
58534;BME280;44109;52.398;7.024;2022-10-13T09:25:47;101489.31;;;17.12;80.18
58534;BME280;44109;52.398;7.024;2022-10-13T09:28:19;101479.66;;;16.95;80.12
58534;BME280;44109;52.398;7.024;2022-10-13T09:31:00;101479.63;;;16.81;79.98
58534;BME280;44109;52.398;7.024;2022-10-13T09:33:33;101478.38;;;16.71;80.20
58534;BME280;44109;52.398;7.024;2022-10-13T09:36:09;101480.41;;;16.82;80.59
58534;BME280;44109;52.398;7.024;2022-10-13T09:38:40;101481.22;;;16.82;80.37
58534;BME280;44109;52.398;7.024;2022-10-13T09:41:19;101485.94;;;16.64;80.85
58534;BME280;44109;52.398;7.024;2022-10-13T09:44:00;101485.13;;;16.60;80.94
58534;BME280;44109;52.398;7.024;2022-10-13T09:46:38;101481.75;;;16.26;81.10
58534;BME280;44109;52.398;7.024;2022-10-13T09:49:27;101485.41;;;16.33;82.50
58534;BME280;44109;52.398;7.024;2022-10-13T09:52:03;101475.41;;;16.32;83.30
58534;BME280;44109;52.398;7.024;2022-10-13T09:54:42;101470.25;;;16.45;84.37
58534;BME280;44109;52.398;7.024;2022-10-13T09:57:27;101476.19;;;16.33;83.87
58534;BME280;44109;52.398;7.024;2022-10-13T10:00:10;101472.28;;;16.44;84.05
58534;BME280;44109;52.398;7.024;2022-10-13T10:02:44;101471.53;;;16.69;84.60
58534;BME280;44109;52.398;7.024;2022-10-13T10:05:23;101457.59;;;16.72;84.61
58534;BME280;44109;52.398;7.024;2022-10-13T10:07:55;101466.81;;;16.84;84.30
58534;BME280;44109;52.398;7.024;2022-10-13T10:10:39;101462.47;;;17.15;84.93
58534;BME280;44109;52.398;7.024;2022-10-13T10:13:09;101467.25;;;17.39;85.55
58534;BME280;44109;52.398;7.024;2022-10-13T10:15:46;101467.69;;;17.73;86.25
58534;BME280;44109;52.398;7.024;2022-10-13T10:18:24;101459.66;;;17.90;83.62
58534;BME280;44109;52.398;7.024;2022-10-13T10:21:21;101451.53;;;18.20;83.53
58534;BME280;44109;52.398;7.024;2022-10-13T10:23:59;101445.09;;;18.31;81.19
58534;BME280;44109;52.398;7.024;2022-10-13T10:26:43;101442.56;;;18.58;80.43
58534;BME280;44109;52.398;7.024;2022-10-13T10:29:23;101447.25;;;18.79;79.49
58534;BME280;44109;52.398;7.024;2022-10-13T10:32:08;101431.97;;;18.83;78.53
58534;BME280;44109;52.398;7.024;2022-10-13T10:34:50;101444.34;;;18.96;79.33
58534;BME280;44109;52.398;7.024;2022-10-13T10:37:38;101445.09;;;19.08;80.04
58534;BME280;44109;52.398;7.024;2022-10-13T10:40:30;101415.84;;;18.94;79.45
58534;BME280;44109;52.398;7.024;2022-10-13T10:43:21;101417.63;;;18.63;78.02
58534;BME280;44109;52.398;7.024;2022-10-13T10:45:59;101429.31;;;18.58;77.71
58534;BME280;44109;52.398;7.024;2022-10-13T10:48:30;101414.47;;;18.50;78.51
58534;BME280;44109;52.398;7.024;2022-10-13T10:51:01;101420.13;;;18.47;78.56
58534;BME280;44109;52.398;7.024;2022-10-13T10:53:37;101433.81;;;18.38;77.56
58534;BME280;44109;52.398;7.024;2022-10-13T10:56:20;101433.81;;;18.34;78.08
58534;BME280;44109;52.398;7.024;2022-10-13T10:58:59;101440.28;;;18.31;77.83
58534;BME280;44109;52.398;7.024;2022-10-13T11:01:36;101438.69;;;18.19;77.22
58534;BME280;44109;52.398;7.024;2022-10-13T11:04:35;101436.66;;;18.27;78.89
58534;BME280;44109;52.398;7.024;2022-10-13T11:07:47;101402.53;;;18.32;79.13
58534;BME280;44109;52.398;7.024;2022-10-13T11:10:20;101404.81;;;18.55;80.01
58534;BME280;44109;52.398;7.024;2022-10-13T11:13:20;101418.34;;;18.78;77.93
58534;BME280;44109;52.398;7.024;2022-10-13T11:15:48;101418.63;;;18.98;79.92
58534;BME280;44109;52.398;7.024;2022-10-13T11:22:17;101411.88;;;18.88;76.69
58534;BME280;44109;52.398;7.024;2022-10-13T11:31:28;101407.56;;;18.73;75.50
58534;BME280;44109;52.398;7.024;2022-10-13T11:33:59;101394.47;;;18.38;76.55
58534;BME280;44109;52.398;7.024;2022-10-13T11:36:35;101400.28;;;18.79;77.61
58534;BME280;44109;52.398;7.024;2022-10-13T11:39:46;101394.19;;;18.88;75.79
58534;BME280;44109;52.398;7.024;2022-10-13T11:42:46;101390.69;;;18.77;76.59
58534;BME280;44109;52.398;7.024;2022-10-13T11:46:10;101381.06;;;18.70;74.70
58534;BME280;44109;52.398;7.024;2022-10-13T11:52:26;101375.13;;;19.13;74.26
58534;BME280;44109;52.398;7.024;2022-10-13T11:55:08;101375.03;;;19.24;75.71
58534;BME280;44109;52.398;7.024;2022-10-13T11:57:39;101373.28;;;18.92;73.96
58534;BME280;44109;52.398;7.024;2022-10-13T12:00:12;101369.06;;;19.18;73.95
58534;BME280;44109;52.398;7.024;2022-10-13T12:02:50;101364.03;;;18.95;72.46
58534;BME280;44109;52.398;7.024;2022-10-13T12:05:21;101372.22;;;19.24;75.52
58534;BME280;44109;52.398;7.024;2022-10-13T12:07:52;101366.38;;;19.45;76.02
58534;BME280;44109;52.398;7.024;2022-10-13T12:10:25;101363.63;;;18.93;74.75
58534;BME280;44109;52.398;7.024;2022-10-13T12:12:58;101368.28;;;19.14;72.98
58534;BME280;44109;52.398;7.024;2022-10-13T12:15:31;101374.78;;;19.08;73.34
58534;BME280;44109;52.398;7.024;2022-10-13T12:18:02;101375.47;;;19.19;73.69
58534;BME280;44109;52.398;7.024;2022-10-13T12:20:51;101368.91;;;19.33;73.43
58534;BME280;44109;52.398;7.024;2022-10-13T12:23:20;101360.63;;;19.15;73.28
58534;BME280;44109;52.398;7.024;2022-10-13T12:25:49;101353.09;;;19.05;73.45
58534;BME280;44109;52.398;7.024;2022-10-13T12:28:24;101343.78;;;19.11;74.82
58534;BME280;44109;52.398;7.024;2022-10-13T12:30:55;101342.22;;;19.07;74.01
58534;BME280;44109;52.398;7.024;2022-10-13T12:33:31;101364.28;;;19.12;73.04
58534;BME280;44109;52.398;7.024;2022-10-13T12:36:11;101358.69;;;19.08;73.59
58534;BME280;44109;52.398;7.024;2022-10-13T12:38:44;101366.69;;;19.13;75.20
58534;BME280;44109;52.398;7.024;2022-10-13T12:41:17;101375.16;;;19.10;75.77
58534;BME280;44109;52.398;7.024;2022-10-13T12:43:50;101365.72;;;18.82;75.74
58534;BME280;44109;52.398;7.024;2022-10-13T12:46:35;101379.44;;;18.77;75.48
58534;BME280;44109;52.398;7.024;2022-10-13T12:49:09;101373.81;;;18.77;75.74
58534;BME280;44109;52.398;7.024;2022-10-13T12:51:41;101373.44;;;18.71;75.97
58534;BME280;44109;52.398;7.024;2022-10-13T12:54:17;101363.84;;;18.61;75.42
58534;BME280;44109;52.398;7.024;2022-10-13T12:56:49;101370.69;;;18.57;76.75
58534;BME280;44109;52.398;7.024;2022-10-13T12:59:19;101365.94;;;18.46;77.43
58534;BME280;44109;52.398;7.024;2022-10-13T13:01:57;101373.16;;;18.44;78.52
58534;BME280;44109;52.398;7.024;2022-10-13T13:04:31;101372.09;;;18.20;79.03
58534;BME280;44109;52.398;7.024;2022-10-13T13:07:28;101332.91;;;17.95;80.11
58534;BME280;44109;52.398;7.024;2022-10-13T13:10:07;101373.75;;;18.14;80.88
58534;BME280;44109;52.398;7.024;2022-10-13T13:12:42;101373.41;;;17.97;80.92
58534;BME280;44109;52.398;7.024;2022-10-13T13:15:29;101372.22;;;17.84;81.86
58534;BME280;44109;52.398;7.024;2022-10-13T13:18:28;101375.03;;;17.84;82.51
58534;BME280;44109;52.398;7.024;2022-10-13T13:21:03;101375.88;;;17.74;82.77
58534;BME280;44109;52.398;7.024;2022-10-13T13:23:32;101369.50;;;17.48;83.81
58534;BME280;44109;52.398;7.024;2022-10-13T13:26:04;101375.50;;;17.54;84.34
58534;BME280;44109;52.398;7.024;2022-10-13T13:28:37;101370.34;;;17.24;84.86
58534;BME280;44109;52.398;7.024;2022-10-13T13:31:10;101365.13;;;17.33;85.14
58534;BME280;44109;52.398;7.024;2022-10-13T13:33:38;101363.13;;;17.23;85.43
58534;BME280;44109;52.398;7.024;2022-10-13T13:36:13;101358.72;;;17.15;85.85
58534;BME280;44109;52.398;7.024;2022-10-13T13:38:43;101365.13;;;16.97;86.29